sensor_id;sensor_type;location;lat;lon;timestamp;pressure;altitude;pressure_sealevel;temperature;humidity
63097;BME280;49185;42.320;23.198;2022-07-22T00:01:28;94852.84;;;17.83;73.71
63097;BME280;49185;42.320;23.198;2022-07-22T00:03:53;94854.41;;;18.19;73.18
63097;BME280;49185;42.320;23.198;2022-07-22T00:06:19;94844.56;;;18.34;72.18
63097;BME280;49185;42.320;23.198;2022-07-22T00:08:44;94842.84;;;17.80;74.66
63097;BME280;49185;42.320;23.198;2022-07-22T00:11:10;94853.03;;;17.63;75.70
63097;BME280;49185;42.320;23.198;2022-07-22T00:13:35;94847.06;;;17.56;75.46
63097;BME280;49185;42.320;23.198;2022-07-22T00:16:01;94847.53;;;17.54;75.69
63097;BME280;49185;42.320;23.198;2022-07-22T00:18:26;94845.88;;;17.57;75.92
63097;BME280;49185;42.320;23.198;2022-07-22T00:20:52;94840.34;;;17.48;75.99
63097;BME280;49185;42.320;23.198;2022-07-22T00:23:17;94840.44;;;17.31;77.13
63097;BME280;49185;42.320;23.198;2022-07-22T00:25:43;94837.81;;;17.28;77.11
63097;BME280;49185;42.320;23.198;2022-07-22T00:28:08;94842.59;;;17.11;77.98
63097;BME280;49185;42.320;23.198;2022-07-22T00:30:34;94845.72;;;16.97;78.78
63097;BME280;49185;42.320;23.198;2022-07-22T00:32:59;94838.00;;;16.83;79.81
63097;BME280;49185;42.320;23.198;2022-07-22T00:35:25;94846.91;;;16.83;80.03
63097;BME280;49185;42.320;23.198;2022-07-22T00:37:51;94835.81;;;16.78;79.72
63097;BME280;49185;42.320;23.198;2022-07-22T00:40:16;94840.91;;;16.76;80.03
63097;BME280;49185;42.320;23.198;2022-07-22T00:42:42;94838.88;;;17.05;78.98
63097;BME280;49185;42.320;23.198;2022-07-22T00:45:08;94833.75;;;16.82;79.90
63097;BME280;49185;42.320;23.198;2022-07-22T00:47:34;94840.31;;;16.68;80.04
63097;BME280;49185;42.320;23.198;2022-07-22T00:50:00;94836.03;;;16.54;81.09
63097;BME280;49185;42.320;23.198;2022-07-22T00:52:26;94836.59;;;16.62;80.73
63097;BME280;49185;42.320;23.198;2022-07-22T00:54:52;94838.03;;;16.66;80.03
63097;BME280;49185;42.320;23.198;2022-07-22T00:57:17;94838.09;;;16.92;78.88
63097;BME280;49185;42.320;23.198;2022-07-22T00:59:43;94840.13;;;17.29;77.85
63097;BME280;49185;42.320;23.198;2022-07-22T01:02:09;94835.81;;;16.90;79.54
63097;BME280;49185;42.320;23.198;2022-07-22T01:04:34;94822.75;;;16.73;79.68
63097;BME280;49185;42.320;23.198;2022-07-22T01:07:00;94834.09;;;16.84;79.75
63097;BME280;49185;42.320;23.198;2022-07-22T01:09:26;94824.47;;;17.33;77.20
63097;BME280;49185;42.320;23.198;2022-07-22T01:11:51;94835.59;;;16.85;79.74
63097;BME280;49185;42.320;23.198;2022-07-22T01:14:17;94841.97;;;16.49;81.27
63097;BME280;49185;42.320;23.198;2022-07-22T01:16:42;94833.38;;;16.38;82.14
63097;BME280;49185;42.320;23.198;2022-07-22T01:19:08;94837.25;;;16.37;82.02
63097;BME280;49185;42.320;23.198;2022-07-22T01:21:33;94846.53;;;16.52;81.72
63097;BME280;49185;42.320;23.198;2022-07-22T01:23:59;94841.16;;;16.36;82.61
63097;BME280;49185;42.320;23.198;2022-07-22T01:26:24;94833.66;;;16.56;81.43
63097;BME280;49185;42.320;23.198;2022-07-22T01:28:50;94836.41;;;16.40;82.38
63097;BME280;49185;42.320;23.198;2022-07-22T01:31:15;94836.47;;;16.82;81.59
63097;BME280;49185;42.320;23.198;2022-07-22T01:33:41;94843.44;;;16.95;80.73
63097;BME280;49185;42.320;23.198;2022-07-22T01:36:07;94847.88;;;16.31;83.26
63097;BME280;49185;42.320;23.198;2022-07-22T01:38:33;94842.16;;;15.97;85.78
63097;BME280;49185;42.320;23.198;2022-07-22T01:40:58;94843.38;;;15.80;87.46
63097;BME280;49185;42.320;23.198;2022-07-22T01:43:24;94839.91;;;15.63;88.63
63097;BME280;49185;42.320;23.198;2022-07-22T01:45:51;94848.69;;;15.51;89.52
63097;BME280;49185;42.320;23.198;2022-07-22T01:48:17;94841.22;;;15.39;90.69
63097;BME280;49185;42.320;23.198;2022-07-22T01:50:43;94849.66;;;15.41;90.81
63097;BME280;49185;42.320;23.198;2022-07-22T01:53:08;94846.38;;;15.49;89.80
63097;BME280;49185;42.320;23.198;2022-07-22T01:55:34;94847.53;;;15.68;88.93
63097;BME280;49185;42.320;23.198;2022-07-22T01:58:00;94842.28;;;15.93;87.07
63097;BME280;49185;42.320;23.198;2022-07-22T02:00:25;94849.38;;;15.87;87.44
63097;BME280;49185;42.320;23.198;2022-07-22T02:02:51;94848.69;;;16.00;85.74
63097;BME280;49185;42.320;23.198;2022-07-22T02:05:17;94851.41;;;15.83;86.42
63097;BME280;49185;42.320;23.198;2022-07-22T02:07:42;94856.75;;;15.71;87.20
63097;BME280;49185;42.320;23.198;2022-07-22T02:10:08;94855.56;;;15.55;88.11
63097;BME280;49185;42.320;23.198;2022-07-22T02:12:35;94860.34;;;15.48;88.72
63097;BME280;49185;42.320;23.198;2022-07-22T02:15:00;94843.81;;;15.42;88.93
63097;BME280;49185;42.320;23.198;2022-07-22T02:17:26;94849.94;;;15.46;89.02
63097;BME280;49185;42.320;23.198;2022-07-22T02:19:52;94843.00;;;15.45;88.83
63097;BME280;49185;42.320;23.198;2022-07-22T02:22:17;94854.78;;;15.55;88.39
63097;BME280;49185;42.320;23.198;2022-07-22T02:24:43;94849.50;;;15.48;88.79
63097;BME280;49185;42.320;23.198;2022-07-22T02:27:08;94864.16;;;15.50;88.86
63097;BME280;49185;42.320;23.198;2022-07-22T02:29:34;94849.59;;;15.44;89.18
63097;BME280;49185;42.320;23.198;2022-07-22T02:31:59;94865.25;;;15.37;89.60
63097;BME280;49185;42.320;23.198;2022-07-22T02:34:25;94864.91;;;15.35;89.94
63097;BME280;49185;42.320;23.198;2022-07-22T02:36:51;94864.66;;;15.29;89.72
63097;BME280;49185;42.320;23.198;2022-07-22T02:39:16;94859.41;;;15.58;88.28
63097;BME280;49185;42.320;23.198;2022-07-22T02:41:42;94862.91;;;15.39;88.83
63097;BME280;49185;42.320;23.198;2022-07-22T02:44:07;94867.06;;;15.23;89.75
63097;BME280;49185;42.320;23.198;2022-07-22T02:46:33;94864.56;;;15.33;89.39
63097;BME280;49185;42.320;23.198;2022-07-22T02:48:58;94867.44;;;15.25;89.54
63097;BME280;49185;42.320;23.198;2022-07-22T02:51:24;94870.50;;;15.08;90.27
63097;BME280;49185;42.320;23.198;2022-07-22T02:53:49;94873.44;;;14.97;91.38
63097;BME280;49185;42.320;23.198;2022-07-22T02:56:15;94866.94;;;14.94;91.82
63097;BME280;49185;42.320;23.198;2022-07-22T02:58:41;94856.84;;;14.95;91.62
63097;BME280;49185;42.320;23.198;2022-07-22T03:01:07;94868.94;;;14.90;91.88
63097;BME280;49185;42.320;23.198;2022-07-22T03:03:32;94877.47;;;14.89;91.87
63097;BME280;49185;42.320;23.198;2022-07-22T03:05:58;94871.16;;;14.76;92.78
63097;BME280;49185;42.320;23.198;2022-07-22T03:08:24;94855.69;;;14.76;92.83
63097;BME280;49185;42.320;23.198;2022-07-22T03:10:50;94872.50;;;14.68;94.30
63097;BME280;49185;42.320;23.198;2022-07-22T03:13:15;94870.34;;;14.59;94.99
63097;BME280;49185;42.320;23.198;2022-07-22T03:15:40;94875.41;;;14.57;95.15
63097;BME280;49185;42.320;23.198;2022-07-22T03:18:06;94882.41;;;14.54;95.88
63097;BME280;49185;42.320;23.198;2022-07-22T03:20:31;94874.63;;;14.56;95.59
63097;BME280;49185;42.320;23.198;2022-07-22T03:22:57;94875.97;;;14.68;94.85
63097;BME280;49185;42.320;23.198;2022-07-22T03:25:22;94871.59;;;14.74;94.53
63097;BME280;49185;42.320;23.198;2022-07-22T03:27:48;94875.47;;;14.73;94.21
63097;BME280;49185;42.320;23.198;2022-07-22T03:30:13;94867.97;;;14.81;93.30
63097;BME280;49185;42.320;23.198;2022-07-22T03:32:39;94874.63;;;14.96;92.48
63097;BME280;49185;42.320;23.198;2022-07-22T03:35:05;94877.53;;;15.05;91.66
63097;BME280;49185;42.320;23.198;2022-07-22T03:37:31;94872.88;;;15.06;91.81
63097;BME280;49185;42.320;23.198;2022-07-22T03:39:56;94876.03;;;15.40;89.78
63097;BME280;49185;42.320;23.198;2022-07-22T03:42:21;94878.88;;;15.69;88.05
63097;BME280;49185;42.320;23.198;2022-07-22T03:44:47;94877.69;;;15.70;87.08
63097;BME280;49185;42.320;23.198;2022-07-22T03:47:18;94872.72;;;15.49;88.57
63097;BME280;49185;42.320;23.198;2022-07-22T03:49:43;94880.09;;;15.48;88.68
63097;BME280;49185;42.320;23.198;2022-07-22T03:52:08;94876.44;;;15.39;89.96
63097;BME280;49185;42.320;23.198;2022-07-22T03:54:34;94880.97;;;15.61;88.82
63097;BME280;49185;42.320;23.198;2022-07-22T03:56:59;94883.78;;;15.74;87.86
63097;BME280;49185;42.320;23.198;2022-07-22T03:59:25;94883.25;;;15.95;86.79
63097;BME280;49185;42.320;23.198;2022-07-22T04:01:50;94887.06;;;16.14;85.78
63097;BME280;49185;42.320;23.198;2022-07-22T04:04:15;94894.66;;;17.22;80.85
63097;BME280;49185;42.320;23.198;2022-07-22T04:06:41;94886.47;;;17.64;78.26
63097;BME280;49185;42.320;23.198;2022-07-22T04:09:07;94891.34;;;17.94;76.93
63097;BME280;49185;42.320;23.198;2022-07-22T04:11:32;94890.50;;;17.72;77.37
63097;BME280;49185;42.320;23.198;2022-07-22T04:13:57;94890.53;;;18.19;74.96
63097;BME280;49185;42.320;23.198;2022-07-22T04:16:23;94892.97;;;17.92;76.15
63097;BME280;49185;42.320;23.198;2022-07-22T04:18:48;94892.94;;;18.17;75.07
63097;BME280;49185;42.320;23.198;2022-07-22T04:21:14;94900.75;;;18.28;74.61
63097;BME280;49185;42.320;23.198;2022-07-22T04:23:39;94894.56;;;18.15;75.19
63097;BME280;49185;42.320;23.198;2022-07-22T04:26:05;94896.16;;;18.37;73.91
63097;BME280;49185;42.320;23.198;2022-07-22T04:28:33;94888.53;;;17.85;77.92
63097;BME280;49185;42.320;23.198;2022-07-22T04:30:58;94889.94;;;18.02;78.77
63097;BME280;49185;42.320;23.198;2022-07-22T04:33:24;94897.13;;;18.44;77.13
63097;BME280;49185;42.320;23.198;2022-07-22T04:35:49;94895.81;;;18.01;79.48
63097;BME280;49185;42.320;23.198;2022-07-22T04:38:16;94897.25;;;18.40;77.05
63097;BME280;49185;42.320;23.198;2022-07-22T04:40:42;94894.22;;;20.18;71.04
63097;BME280;49185;42.320;23.198;2022-07-22T04:43:07;94888.41;;;21.95;63.29
63097;BME280;49185;42.320;23.198;2022-07-22T04:45:32;94886.84;;;22.99;58.33
63097;BME280;49185;42.320;23.198;2022-07-22T04:47:58;94892.00;;;23.65;55.83
63097;BME280;49185;42.320;23.198;2022-07-22T04:50:23;94893.81;;;24.03;55.21
63097;BME280;49185;42.320;23.198;2022-07-22T04:52:49;94883.28;;;25.17;51.16
63097;BME280;49185;42.320;23.198;2022-07-22T04:55:14;94890.59;;;26.09;48.32
63097;BME280;49185;42.320;23.198;2022-07-22T04:57:40;94896.06;;;26.94;46.36
63097;BME280;49185;42.320;23.198;2022-07-22T05:00:06;94893.25;;;26.89;45.92
63097;BME280;49185;42.320;23.198;2022-07-22T05:02:31;94888.13;;;29.11;40.26
63097;BME280;49185;42.320;23.198;2022-07-22T05:04:57;94887.44;;;28.93;40.32
63097;BME280;49185;42.320;23.198;2022-07-22T05:07:22;94902.28;;;29.01;40.17
63097;BME280;49185;42.320;23.198;2022-07-22T05:09:48;94887.91;;;30.39;36.46
63097;BME280;49185;42.320;23.198;2022-07-22T05:12:13;94892.38;;;29.58;37.74
63097;BME280;49185;42.320;23.198;2022-07-22T05:14:39;94893.34;;;28.56;40.53
63097;BME280;49185;42.320;23.198;2022-07-22T05:17:09;94889.13;;;29.13;39.34
63097;BME280;49185;42.320;23.198;2022-07-22T05:19:37;94884.06;;;31.66;34.23
63097;BME280;49185;42.320;23.198;2022-07-22T05:22:03;94894.84;;;30.52;35.72
63097;BME280;49185;42.320;23.198;2022-07-22T05:24:28;94894.50;;;29.77;37.96
63097;BME280;49185;42.320;23.198;2022-07-22T05:26:54;94888.16;;;30.85;35.51
63097;BME280;49185;42.320;23.198;2022-07-22T05:29:19;94889.53;;;30.54;34.80
63097;BME280;49185;42.320;23.198;2022-07-22T05:31:44;94890.09;;;30.22;36.51
63097;BME280;49185;42.320;23.198;2022-07-22T05:34:10;94890.44;;;31.05;35.96
63097;BME280;49185;42.320;23.198;2022-07-22T05:36:35;94893.97;;;31.05;35.52
63097;BME280;49185;42.320;23.198;2022-07-22T05:39:01;94884.25;;;29.96;38.73
63097;BME280;49185;42.320;23.198;2022-07-22T05:41:26;94885.34;;;30.90;36.99
63097;BME280;49185;42.320;23.198;2022-07-22T05:43:52;94889.09;;;34.21;29.66
63097;BME280;49185;42.320;23.198;2022-07-22T05:46:17;94891.81;;;31.36;34.84
63097;BME280;49185;42.320;23.198;2022-07-22T05:48:43;94896.47;;;33.08;32.12
63097;BME280;49185;42.320;23.198;2022-07-22T05:51:12;94904.16;;;32.50;32.26
63097;BME280;49185;42.320;23.198;2022-07-22T05:53:38;94891.31;;;33.26;31.93
63097;BME280;49185;42.320;23.198;2022-07-22T05:56:04;94890.16;;;31.08;34.88
63097;BME280;49185;42.320;23.198;2022-07-22T05:58:29;94894.22;;;32.09;33.83
63097;BME280;49185;42.320;23.198;2022-07-22T06:00:55;94899.31;;;31.92;33.53
63097;BME280;49185;42.320;23.198;2022-07-22T06:03:20;94896.31;;;34.16;30.17
63097;BME280;49185;42.320;23.198;2022-07-22T06:05:46;94884.22;;;35.42;27.24
63097;BME280;49185;42.320;23.198;2022-07-22T06:08:11;94894.78;;;34.57;28.61
63097;BME280;49185;42.320;23.198;2022-07-22T06:10:37;94890.81;;;35.16;27.21
63097;BME280;49185;42.320;23.198;2022-07-22T06:13:02;94888.41;;;34.28;28.57
63097;BME280;49185;42.320;23.198;2022-07-22T06:15:27;94886.19;;;35.27;27.30
63097;BME280;49185;42.320;23.198;2022-07-22T06:17:53;94894.53;;;34.05;29.78
63097;BME280;49185;42.320;23.198;2022-07-22T06:20:18;94884.88;;;34.56;28.59
63097;BME280;49185;42.320;23.198;2022-07-22T06:22:44;94887.53;;;34.33;28.93
63097;BME280;49185;42.320;23.198;2022-07-22T06:25:09;94888.59;;;33.88;29.11
63097;BME280;49185;42.320;23.198;2022-07-22T06:27:35;94882.03;;;34.27;29.34
63097;BME280;49185;42.320;23.198;2022-07-22T06:30:01;94872.69;;;35.54;27.13
63097;BME280;49185;42.320;23.198;2022-07-22T06:32:26;94873.66;;;33.99;29.78
63097;BME280;49185;42.320;23.198;2022-07-22T06:34:52;94879.91;;;33.24;30.86
63097;BME280;49185;42.320;23.198;2022-07-22T06:37:17;94876.91;;;33.22;29.84
63097;BME280;49185;42.320;23.198;2022-07-22T06:39:42;94881.94;;;32.76;31.95
63097;BME280;49185;42.320;23.198;2022-07-22T06:42:08;94866.97;;;33.26;30.60
63097;BME280;49185;42.320;23.198;2022-07-22T06:44:33;94864.25;;;34.30;30.23
63097;BME280;49185;42.320;23.198;2022-07-22T06:46:59;94867.38;;;34.06;30.23
63097;BME280;49185;42.320;23.198;2022-07-22T06:49:24;94871.41;;;36.84;26.01
63097;BME280;49185;42.320;23.198;2022-07-22T06:51:50;94873.97;;;38.10;24.35
63097;BME280;49185;42.320;23.198;2022-07-22T06:54:15;94868.59;;;38.46;23.72
63097;BME280;49185;42.320;23.198;2022-07-22T06:56:40;94869.22;;;37.15;25.40
63097;BME280;49185;42.320;23.198;2022-07-22T06:59:06;94861.22;;;36.26;27.08
63097;BME280;49185;42.320;23.198;2022-07-22T07:01:31;94865.09;;;37.96;23.87
63097;BME280;49185;42.320;23.198;2022-07-22T07:03:57;94866.91;;;37.76;24.33
63097;BME280;49185;42.320;23.198;2022-07-22T07:06:22;94864.13;;;36.81;25.56
63097;BME280;49185;42.320;23.198;2022-07-22T07:08:48;94861.13;;;37.74;24.21
63097;BME280;49185;42.320;23.198;2022-07-22T07:11:13;94861.63;;;37.48;23.27
63097;BME280;49185;42.320;23.198;2022-07-22T07:13:39;94858.25;;;38.07;23.49
63097;BME280;49185;42.320;23.198;2022-07-22T07:16:04;94869.88;;;37.78;23.43
63097;BME280;49185;42.320;23.198;2022-07-22T07:18:30;94868.28;;;35.22;24.24
63097;BME280;49185;42.320;23.198;2022-07-22T07:20:55;94861.34;;;35.15;23.51
63097;BME280;49185;42.320;23.198;2022-07-22T07:23:21;94864.06;;;36.96;23.36
63097;BME280;49185;42.320;23.198;2022-07-22T07:25:46;94850.91;;;36.21;24.34
63097;BME280;49185;42.320;23.198;2022-07-22T07:28:12;94860.78;;;36.67;23.86
63097;BME280;49185;42.320;23.198;2022-07-22T07:30:37;94859.81;;;36.80;23.39
63097;BME280;49185;42.320;23.198;2022-07-22T07:33:03;94857.75;;;37.36;23.25
63097;BME280;49185;42.320;23.198;2022-07-22T07:35:28;94854.25;;;37.28;22.81
63097;BME280;49185;42.320;23.198;2022-07-22T07:37:54;94856.53;;;38.53;21.62
63097;BME280;49185;42.320;23.198;2022-07-22T07:40:20;94856.16;;;38.15;22.06
63097;BME280;49185;42.320;23.198;2022-07-22T07:42:45;94850.69;;;36.79;23.92
63097;BME280;49185;42.320;23.198;2022-07-22T07:45:11;94854.03;;;36.85;23.31
63097;BME280;49185;42.320;23.198;2022-07-22T07:47:37;94857.41;;;36.84;24.41
63097;BME280;49185;42.320;23.198;2022-07-22T07:50:06;94848.47;;;37.58;23.20
63097;BME280;49185;42.320;23.198;2022-07-22T07:52:39;94850.34;;;37.23;23.90
63097;BME280;49185;42.320;23.198;2022-07-22T07:55:06;94853.34;;;39.80;20.35
63097;BME280;49185;42.320;23.198;2022-07-22T07:57:32;94852.56;;;38.39;22.91
63097;BME280;49185;42.320;23.198;2022-07-22T07:59:57;94850.06;;;39.03;22.11
63097;BME280;49185;42.320;23.198;2022-07-22T08:02:23;94854.59;;;37.97;23.32
63097;BME280;49185;42.320;23.198;2022-07-22T08:04:48;94864.38;;;36.07;24.35
63097;BME280;49185;42.320;23.198;2022-07-22T08:07:14;94856.59;;;36.99;23.46
63097;BME280;49185;42.320;23.198;2022-07-22T08:09:39;94860.25;;;37.24;24.16
63097;BME280;49185;42.320;23.198;2022-07-22T08:12:10;94861.88;;;37.35;23.30
63097;BME280;49185;42.320;23.198;2022-07-22T08:14:35;94849.00;;;39.25;21.11
63097;BME280;49185;42.320;23.198;2022-07-22T08:17:01;94846.78;;;38.54;21.67
63097;BME280;49185;42.320;23.198;2022-07-22T08:19:27;94853.91;;;39.24;21.03
63097;BME280;49185;42.320;23.198;2022-07-22T08:21:52;94850.78;;;39.92;19.67
63097;BME280;49185;42.320;23.198;2022-07-22T08:24:18;94848.22;;;38.80;20.77
63097;BME280;49185;42.320;23.198;2022-07-22T08:26:43;94847.94;;;39.65;20.95
63097;BME280;49185;42.320;23.198;2022-07-22T08:29:09;94848.59;;;38.42;21.81
63097;BME280;49185;42.320;23.198;2022-07-22T08:31:35;94855.41;;;38.74;21.33
63097;BME280;49185;42.320;23.198;2022-07-22T08:34:03;94860.72;;;38.28;21.56
63097;BME280;49185;42.320;23.198;2022-07-22T08:36:29;94855.56;;;37.92;22.06
63097;BME280;49185;42.320;23.198;2022-07-22T08:38:55;94861.28;;;38.01;21.58
63097;BME280;49185;42.320;23.198;2022-07-22T08:41:23;94855.16;;;37.95;21.92
63097;BME280;49185;42.320;23.198;2022-07-22T08:43:49;94859.91;;;37.85;21.98
63097;BME280;49185;42.320;23.198;2022-07-22T08:46:15;94856.91;;;37.10;23.66
63097;BME280;49185;42.320;23.198;2022-07-22T08:48:41;94853.94;;;38.13;22.23
63097;BME280;49185;42.320;23.198;2022-07-22T08:51:07;94856.19;;;38.07;23.86
63097;BME280;49185;42.320;23.198;2022-07-22T08:53:33;94856.53;;;37.54;23.46
63097;BME280;49185;42.320;23.198;2022-07-22T08:55:59;94862.06;;;37.37;23.16
63097;BME280;49185;42.320;23.198;2022-07-22T08:58:25;94852.63;;;37.49;22.55
63097;BME280;49185;42.320;23.198;2022-07-22T09:01:09;94850.41;;;38.30;21.53
63097;BME280;49185;42.320;23.198;2022-07-22T09:03:47;94856.56;;;38.11;21.62
63097;BME280;49185;42.320;23.198;2022-07-22T09:06:13;94856.97;;;37.03;22.08
63097;BME280;49185;42.320;23.198;2022-07-22T09:08:52;94847.25;;;37.76;21.48
63097;BME280;49185;42.320;23.198;2022-07-22T09:11:19;94848.91;;;37.47;21.89
63097;BME280;49185;42.320;23.198;2022-07-22T09:13:46;94854.09;;;37.10;22.69
63097;BME280;49185;42.320;23.198;2022-07-22T09:16:12;94839.41;;;38.67;20.93
63097;BME280;49185;42.320;23.198;2022-07-22T09:18:52;94846.31;;;38.48;20.55
63097;BME280;49185;42.320;23.198;2022-07-22T09:21:20;94853.44;;;38.25;20.57
63097;BME280;49185;42.320;23.198;2022-07-22T09:23:45;94848.88;;;38.12;21.74
63097;BME280;49185;42.320;23.198;2022-07-22T09:26:34;94845.41;;;37.71;20.57
63097;BME280;49185;42.320;23.198;2022-07-22T09:29:00;94845.38;;;36.99;20.94
63097;BME280;49185;42.320;23.198;2022-07-22T09:31:28;94840.19;;;36.88;21.20
63097;BME280;49185;42.320;23.198;2022-07-22T09:33:54;94828.69;;;36.45;22.03
63097;BME280;49185;42.320;23.198;2022-07-22T09:36:19;94846.25;;;35.77;23.12
63097;BME280;49185;42.320;23.198;2022-07-22T09:38:45;94840.28;;;35.89;22.57
63097;BME280;49185;42.320;23.198;2022-07-22T09:41:10;94842.72;;;36.15;21.28
63097;BME280;49185;42.320;23.198;2022-07-22T09:43:36;94828.72;;;36.07;22.87
63097;BME280;49185;42.320;23.198;2022-07-22T09:46:02;94838.59;;;36.46;22.67
63097;BME280;49185;42.320;23.198;2022-07-22T09:48:27;94842.16;;;36.47;21.04
63097;BME280;49185;42.320;23.198;2022-07-22T09:50:54;94834.53;;;37.43;21.50
63097;BME280;49185;42.320;23.198;2022-07-22T09:53:22;94838.56;;;36.62;21.76
63097;BME280;49185;42.320;23.198;2022-07-22T09:55:49;94835.28;;;37.03;20.38
63097;BME280;49185;42.320;23.198;2022-07-22T09:58:15;94831.06;;;36.64;21.74
63097;BME280;49185;42.320;23.198;2022-07-22T10:00:41;94830.41;;;35.88;21.92
63097;BME280;49185;42.320;23.198;2022-07-22T10:03:11;94821.56;;;36.60;21.28
63097;BME280;49185;42.320;23.198;2022-07-22T10:05:40;94827.06;;;36.98;21.71
63097;BME280;49185;42.320;23.198;2022-07-22T10:08:07;94832.66;;;37.05;20.80
63097;BME280;49185;42.320;23.198;2022-07-22T10:10:34;94826.00;;;36.78;21.01
63097;BME280;49185;42.320;23.198;2022-07-22T10:13:00;94831.66;;;36.55;20.63
63097;BME280;49185;42.320;23.198;2022-07-22T10:15:28;94820.28;;;35.69;21.11
63097;BME280;49185;42.320;23.198;2022-07-22T10:17:56;94819.59;;;35.92;22.14
63097;BME280;49185;42.320;23.198;2022-07-22T10:20:25;94817.91;;;36.27;21.19
63097;BME280;49185;42.320;23.198;2022-07-22T10:22:53;94808.16;;;36.43;22.25
63097;BME280;49185;42.320;23.198;2022-07-22T10:25:21;94807.06;;;36.31;21.94
63097;BME280;49185;42.320;23.198;2022-07-22T10:27:54;94810.81;;;36.03;21.40
63097;BME280;49185;42.320;23.198;2022-07-22T10:30:27;94806.09;;;36.51;21.43
63097;BME280;49185;42.320;23.198;2022-07-22T10:33:16;94798.59;;;36.61;20.68
63097;BME280;49185;42.320;23.198;2022-07-22T10:36:00;94802.88;;;36.70;22.19
63097;BME280;49185;42.320;23.198;2022-07-22T10:38:26;94803.22;;;37.54;22.05
63097;BME280;49185;42.320;23.198;2022-07-22T10:40:58;94804.22;;;37.74;21.62
63097;BME280;49185;42.320;23.198;2022-07-22T10:43:47;94809.63;;;37.47;20.50
63097;BME280;49185;42.320;23.198;2022-07-22T10:46:12;94808.09;;;36.73;20.81
63097;BME280;49185;42.320;23.198;2022-07-22T10:58:56;94805.09;;;36.79;19.96
63097;BME280;49185;42.320;23.198;2022-07-22T11:01:25;94811.81;;;36.83;20.46
63097;BME280;49185;42.320;23.198;2022-07-22T11:03:52;94804.75;;;37.15;20.90
63097;BME280;49185;42.320;23.198;2022-07-22T11:06:38;94807.16;;;37.26;20.72
63097;BME280;49185;42.320;23.198;2022-07-22T11:09:06;94798.31;;;37.30;20.16
63097;BME280;49185;42.320;23.198;2022-07-22T11:11:39;94804.25;;;37.01;20.32
63097;BME280;49185;42.320;23.198;2022-07-22T11:14:31;94798.75;;;37.51;20.38
63097;BME280;49185;42.320;23.198;2022-07-22T11:16:59;94803.09;;;37.77;20.40
63097;BME280;49185;42.320;23.198;2022-07-22T11:19:27;94795.25;;;37.43;19.98
63097;BME280;49185;42.320;23.198;2022-07-22T11:21:55;94790.84;;;38.07;19.27
63097;BME280;49185;42.320;23.198;2022-07-22T11:24:23;94787.84;;;38.12;19.05
63097;BME280;49185;42.320;23.198;2022-07-22T11:26:51;94786.38;;;38.46;20.19
63097;BME280;49185;42.320;23.198;2022-07-22T11:29:40;94785.63;;;38.03;19.12
63097;BME280;49185;42.320;23.198;2022-07-22T11:32:06;94793.34;;;37.45;19.04
63097;BME280;49185;42.320;23.198;2022-07-22T11:34:32;94790.50;;;38.28;19.54
63097;BME280;49185;42.320;23.198;2022-07-22T11:36:58;94781.38;;;38.88;18.03
63097;BME280;49185;42.320;23.198;2022-07-22T11:39:28;94781.34;;;38.44;19.70
63097;BME280;49185;42.320;23.198;2022-07-22T11:41:58;94792.31;;;37.66;19.63
63097;BME280;49185;42.320;23.198;2022-07-22T11:44:28;94785.19;;;38.14;18.61
63097;BME280;49185;42.320;23.198;2022-07-22T11:46:55;94779.25;;;37.85;20.28
63097;BME280;49185;42.320;23.198;2022-07-22T11:49:21;94776.72;;;37.97;19.54
63097;BME280;49185;42.320;23.198;2022-07-22T11:51:47;94783.53;;;37.86;19.39
63097;BME280;49185;42.320;23.198;2022-07-22T11:54:13;94780.66;;;38.71;16.94
63097;BME280;49185;42.320;23.198;2022-07-22T11:56:39;94774.56;;;38.65;18.11
63097;BME280;49185;42.320;23.198;2022-07-22T11:59:06;94787.69;;;38.45;18.37
63097;BME280;49185;42.320;23.198;2022-07-22T12:01:33;94778.31;;;38.67;18.76
63097;BME280;49185;42.320;23.198;2022-07-22T12:04:02;94784.19;;;39.06;16.67
63097;BME280;49185;42.320;23.198;2022-07-22T12:06:29;94771.78;;;39.36;16.95
63097;BME280;49185;42.320;23.198;2022-07-22T12:09:03;94786.00;;;39.65;15.74
63097;BME280;49185;42.320;23.198;2022-07-22T12:11:29;94786.75;;;39.92;16.55
63097;BME280;49185;42.320;23.198;2022-07-22T12:13:55;94783.94;;;40.02;15.85
63097;BME280;49185;42.320;23.198;2022-07-22T12:16:29;94771.31;;;39.30;15.87
63097;BME280;49185;42.320;23.198;2022-07-22T12:18:59;94775.91;;;39.88;15.95
63097;BME280;49185;42.320;23.198;2022-07-22T12:21:32;94781.94;;;40.70;16.19
63097;BME280;49185;42.320;23.198;2022-07-22T12:24:08;94785.09;;;39.99;16.89
63097;BME280;49185;42.320;23.198;2022-07-22T12:26:51;94774.72;;;39.01;17.63
63097;BME280;49185;42.320;23.198;2022-07-22T12:31:53;94784.72;;;38.01;18.37
63097;BME280;49185;42.320;23.198;2022-07-22T12:34:56;94779.91;;;38.36;18.52
63097;BME280;49185;42.320;23.198;2022-07-22T12:42:42;94771.19;;;37.00;19.63
63097;BME280;49185;42.320;23.198;2022-07-22T12:45:17;94774.94;;;36.39;21.24
63097;BME280;49185;42.320;23.198;2022-07-22T12:47:52;94776.84;;;35.83;20.77
63097;BME280;49185;42.320;23.198;2022-07-22T12:50:54;94773.09;;;36.04;20.98
63097;BME280;49185;42.320;23.198;2022-07-22T12:53:20;94767.13;;;35.69;22.47
63097;BME280;49185;42.320;23.198;2022-07-22T12:55:54;94768.63;;;35.70;22.40
63097;BME280;49185;42.320;23.198;2022-07-22T12:58:20;94766.78;;;35.96;22.31
63097;BME280;49185;42.320;23.198;2022-07-22T13:00:48;94755.88;;;35.16;21.60
63097;BME280;49185;42.320;23.198;2022-07-22T13:03:14;94767.56;;;34.99;22.38
63097;BME280;49185;42.320;23.198;2022-07-22T13:05:40;94762.72;;;34.48;21.34
63097;BME280;49185;42.320;23.198;2022-07-22T13:08:05;94762.53;;;34.98;21.86